createdAt,value
2018-03-02T00:00:10.563Z,62.92
2018-03-02T00:02:05.881Z,58.70
2018-03-02T00:03:08.992Z,59.78
2018-03-02T00:04:12.134Z,62.67
2018-03-02T00:05:15.265Z,63.33
2018-03-02T00:07:18.230Z,62.62
2018-03-02T00:08:21.638Z,64.03
2018-03-02T00:10:46.170Z,65.12
2018-03-02T00:12:52.852Z,64.62
2018-03-02T00:13:54.239Z,64.62
2018-03-02T00:14:56.149Z,64.15
2018-03-02T00:15:58.194Z,61.67
2018-03-02T00:16:59.603Z,62.42
2018-03-02T00:18:01.282Z,59.28
2018-03-02T00:19:04.446Z,60.97
2018-03-02T00:20:07.914Z,61.45
2018-03-02T00:21:09.754Z,62.00
2018-03-02T00:22:37.936Z,58.47
2018-03-02T00:24:37.492Z,60.70
2018-03-02T00:26:32.353Z,69.00
2018-03-02T00:27:34.443Z,60.05
2018-03-02T00:29:12.978Z,56.92
2018-03-02T00:30:16.410Z,61.28
2018-03-02T00:31:19.508Z,60.78
2018-03-02T00:33:07.569Z,57.70
2018-03-02T00:34:09.815Z,60.08
2018-03-02T00:35:59.529Z,63.22
2018-03-02T00:37:03.754Z,65.37
2018-03-02T00:38:06.109Z,62.25
2018-03-02T00:39:57.962Z,61.00
2018-03-02T00:40:59.370Z,58.58
2018-03-02T00:42:01.079Z,61.00
2018-03-02T00:43:03.364Z,61.67
2018-03-02T00:44:07.018Z,62.90
2018-03-02T00:45:10.482Z,61.78
2018-03-02T00:46:13.572Z,64.60
2018-03-02T00:47:15.743Z,71.22
2018-03-02T00:48:18.833Z,64.87
2018-03-02T00:49:20.215Z,60.58
2018-03-02T00:50:21.602Z,64.35
2018-03-02T00:51:23.738Z,62.03
2018-03-02T00:52:25.660Z,70.18
2018-03-02T00:53:28.775Z,66.40
2018-03-02T00:54:31.291Z,63.17
2018-03-02T00:55:34.950Z,65.15
2018-03-02T00:56:38.312Z,58.67
2018-03-02T00:58:04.662Z,63.00
2018-03-02T00:59:07.132Z,62.80
2018-03-02T01:00:10.374Z,60.28
2018-03-02T01:01:11.761Z,64.62
2018-03-02T01:02:13.145Z,61.60
2018-03-02T01:03:14.838Z,67.32
2018-03-02T01:06:36.404Z,65.85
2018-03-02T01:08:36.382Z,62.62
2018-03-02T01:09:38.222Z,64.22
2018-03-02T01:10:41.700Z,59.85
2018-03-02T01:11:43.868Z,59.20
2018-03-02T01:13:12.018Z,63.28
2018-03-02T01:14:15.410Z,62.53
2018-03-02T01:15:16.815Z,64.72
2018-03-02T01:16:19.917Z,63.85
2018-03-02T01:17:23.038Z,65.62
2018-03-02T01:18:24.824Z,64.65
2018-03-02T01:20:08.112Z,63.40
2018-03-02T01:21:09.935Z,62.80
2018-03-02T01:22:11.364Z,67.60
2018-03-02T01:23:14.499Z,65.78
2018-03-02T01:24:15.930Z,62.00
2018-03-02T01:25:18.118Z,59.78
2018-03-02T01:26:19.510Z,60.17
2018-03-02T01:28:05.376Z,61.63
2018-03-02T01:29:08.954Z,63.38
2018-03-02T01:30:10.690Z,64.65
2018-03-02T01:31:12.510Z,61.88
2018-03-02T01:32:56.431Z,63.60
2018-03-02T01:33:58.006Z,64.65
2018-03-02T01:34:59.422Z,63.08
2018-03-02T01:36:00.822Z,63.65
2018-03-02T01:37:05.018Z,59.58
2018-03-02T01:38:07.314Z,60.38
2018-03-02T01:39:09.794Z,60.28
2018-03-02T01:40:11.194Z,60.50
2018-03-02T01:41:12.579Z,60.83
2018-03-02T01:42:14.770Z,64.35
2018-03-02T01:43:17.928Z,60.45
2018-03-02T01:44:20.080Z,62.85
2018-03-02T01:46:22.896Z,61.65
2018-03-02T01:47:26.670Z,60.45
2018-03-02T01:48:29.203Z,58.58
2018-03-02T01:49:53.759Z,59.42
2018-03-02T01:50:57.156Z,58.95
2018-03-02T01:52:00.250Z,60.00
2018-03-02T01:53:02.360Z,59.40
2018-03-02T01:54:04.516Z,59.25
2018-03-02T01:55:06.492Z,60.08
2018-03-02T01:56:09.734Z,57.80
2018-03-02T01:57:11.125Z,60.22
2018-03-02T01:58:13.679Z,61.63
2018-03-02T01:59:16.186Z,60.83
2018-03-02T02:00:17.614Z,59.03
2018-03-02T02:01:20.732Z,63.83
2018-03-02T02:02:23.882Z,62.90
2018-03-02T02:04:09.281Z,61.08
2018-03-02T02:05:10.698Z,61.33
2018-03-02T02:06:13.212Z,61.92
2018-03-02T02:07:14.607Z,58.65
2018-03-02T02:08:16.758Z,64.45
2018-03-02T02:09:20.784Z,61.22
2018-03-02T02:10:22.940Z,64.40
2018-03-02T02:11:25.420Z,60.10
2018-03-02T02:12:27.198Z,60.70
2018-03-02T02:13:28.618Z,59.70
2018-03-02T02:14:30.047Z,60.28
2018-03-02T02:15:31.466Z,60.20
2018-03-02T02:16:33.725Z,59.78
2018-03-02T02:17:35.994Z,56.22
2018-03-02T02:18:37.713Z,57.97
2018-03-02T02:19:41.136Z,57.47
2018-03-02T02:20:43.315Z,60.95
2018-03-02T02:21:44.738Z,61.85
2018-03-02T02:23:20.597Z,66.20
2018-03-02T02:24:21.992Z,61.10
2018-03-02T02:25:23.678Z,58.60
2018-03-02T02:26:25.526Z,59.17
2018-03-02T02:27:27.241Z,61.05
2018-03-02T02:28:29.386Z,56.45
2018-03-02T02:29:30.795Z,60.33
2018-03-02T02:30:33.608Z,64.12
2018-03-02T02:31:35.550Z,58.05
2018-03-02T02:32:38.938Z,58.22
2018-03-02T02:33:40.485Z,59.75
2018-03-02T02:34:43.578Z,59.00
2018-03-02T02:35:44.978Z,57.33
2018-03-02T02:36:46.379Z,64.30
2018-03-02T02:37:48.882Z,59.03
2018-03-02T02:38:51.003Z,59.70
2018-03-02T02:39:52.395Z,61.65
2018-03-02T02:40:55.140Z,59.92
2018-03-02T02:41:56.870Z,59.47
2018-03-02T02:42:58.368Z,59.78
2018-03-02T02:43:59.772Z,61.00
2018-03-02T02:45:01.160Z,60.55
2018-03-02T02:46:04.315Z,59.83
2018-03-02T02:47:06.362Z,62.92
2018-03-02T02:48:08.077Z,58.70
2018-03-02T02:49:09.705Z,58.97
2018-03-02T02:50:12.821Z,60.55
2018-03-02T02:51:14.483Z,60.08
2018-03-02T02:52:15.869Z,62.15
2018-03-02T02:53:17.288Z,59.38
2018-03-02T02:54:18.677Z,59.92
2018-03-02T02:55:20.081Z,58.97
2018-03-02T02:56:21.843Z,63.63
2018-03-02T02:57:24.033Z,59.85
2018-03-02T02:58:27.234Z,61.08
2018-03-02T02:59:28.633Z,63.15
2018-03-02T03:00:30.036Z,60.97
2018-03-02T03:01:32.718Z,60.80
2018-03-02T03:02:36.514Z,59.75
2018-03-02T03:03:39.294Z,62.42
2018-03-02T03:06:20.802Z,58.92
2018-03-02T03:07:22.481Z,60.30
2018-03-02T03:08:23.886Z,58.22
2018-03-02T03:09:25.578Z,60.40
2018-03-02T03:10:28.838Z,57.28
2018-03-02T03:12:17.042Z,61.10
2018-03-02T03:13:18.817Z,58.50
2018-03-02T03:14:20.214Z,62.17
2018-03-02T03:15:21.618Z,58.55
2018-03-02T03:16:25.025Z,65.72
2018-03-02T03:17:26.977Z,63.35
2018-03-02T03:18:30.138Z,58.50
2018-03-02T03:19:34.114Z,57.05
2018-03-02T03:20:37.609Z,63.47
2018-03-02T03:21:39.266Z,66.35
2018-03-02T03:22:42.382Z,63.42
2018-03-02T03:23:44.121Z,59.42
2018-03-02T03:24:46.250Z,59.97
2018-03-02T03:25:48.764Z,64.25
2018-03-02T03:26:51.860Z,61.85
2018-03-02T03:27:53.295Z,61.25
2018-03-02T03:28:55.057Z,58.55
2018-03-02T03:29:57.090Z,63.65
2018-03-02T03:31:58.638Z,58.20
2018-03-02T03:33:00.054Z,61.25
2018-03-02T03:34:44.014Z,62.72
2018-03-02T03:36:17.567Z,60.45
2018-03-02T03:37:19.043Z,60.67
2018-03-02T03:38:20.411Z,60.45
2018-03-02T03:39:23.538Z,60.20
2018-03-02T03:40:26.998Z,59.75
2018-03-02T03:41:30.101Z,56.72
2018-03-02T03:42:33.562Z,65.45
2018-03-02T03:43:37.004Z,64.68
2018-03-02T03:44:38.857Z,59.53
2018-03-02T03:45:42.236Z,57.00
2018-03-02T03:47:36.944Z,59.22
2018-03-02T03:48:39.407Z,57.05
2018-03-02T03:49:40.786Z,59.72
2018-03-02T03:50:42.463Z,58.45
2018-03-02T03:51:43.839Z,61.40
2018-03-02T03:54:16.031Z,57.50
2018-03-02T03:55:17.442Z,64.80
2018-03-02T03:56:20.889Z,58.30
2018-03-02T03:57:22.286Z,63.03
2018-03-02T03:58:25.761Z,63.60
2018-03-02T03:59:27.462Z,58.50
2018-03-02T04:00:28.863Z,61.55
2018-03-02T04:01:30.629Z,66.35
2018-03-02T04:02:34.258Z,62.28
2018-03-02T04:03:36.914Z,62.88
2018-03-02T04:04:38.692Z,63.03
2018-03-02T04:05:41.824Z,63.92
2018-03-02T04:06:43.494Z,60.97
2018-03-02T04:07:44.892Z,65.78
2018-03-02T04:08:48.044Z,58.67
2018-03-02T04:09:49.474Z,63.72
2018-03-02T04:10:50.858Z,57.78
2018-03-02T04:12:46.634Z,60.25
2018-03-02T04:13:49.748Z,61.47
2018-03-02T04:14:52.236Z,60.67
2018-03-02T04:15:55.564Z,62.25
2018-03-02T04:16:58.712Z,60.00
2018-03-02T04:18:00.371Z,60.72
2018-03-02T04:19:02.345Z,62.17
2018-03-02T04:20:04.753Z,61.60
2018-03-02T04:21:06.758Z,61.20
2018-03-02T04:22:08.418Z,58.87
2018-03-02T04:23:10.873Z,58.08
2018-03-02T04:24:13.986Z,61.65
2018-03-02T04:25:15.730Z,67.95
2018-03-02T04:27:01.604Z,63.72
2018-03-02T04:29:03.937Z,61.80
2018-03-02T04:33:21.722Z,59.47
2018-03-02T04:34:23.905Z,61.67
2018-03-02T04:35:25.473Z,58.80
2018-03-02T04:36:27.601Z,61.17
2018-03-02T04:37:30.109Z,61.95
2018-03-02T04:39:18.234Z,60.97
2018-03-02T04:40:19.657Z,62.40
2018-03-02T04:41:21.826Z,65.47
2018-03-02T04:42:24.977Z,66.12
2018-03-02T04:43:26.609Z,64.60
2018-03-02T04:44:28.001Z,63.33
2018-03-02T04:45:29.681Z,62.30
2018-03-02T04:46:32.572Z,66.53
2018-03-02T04:47:36.386Z,59.90
2018-03-02T04:48:39.673Z,62.78
2018-03-02T04:50:16.781Z,58.10
2018-03-02T04:51:18.473Z,57.45
2018-03-02T04:53:09.032Z,61.60
2018-03-02T04:54:12.155Z,62.03
2018-03-02T04:55:13.545Z,61.92
2018-03-02T04:56:14.948Z,62.53
2018-03-02T04:58:08.947Z,64.20
2018-03-02T04:59:11.454Z,60.53
2018-03-02T05:00:14.575Z,61.85
2018-03-02T05:01:15.962Z,60.55
2018-03-02T05:02:17.362Z,58.05
2018-03-02T05:05:59.644Z,64.93
2018-03-02T05:07:01.027Z,60.90
2018-03-02T05:08:05.577Z,59.38
2018-03-02T05:09:09.112Z,61.80
2018-03-02T05:10:10.526Z,58.08
2018-03-02T05:11:12.137Z,60.30
2018-03-02T05:13:09.182Z,64.12
2018-03-02T05:14:11.141Z,59.45
2018-03-02T05:15:14.264Z,58.92
2018-03-02T05:16:16.665Z,60.80
2018-03-02T05:17:18.073Z,60.45
2018-03-02T05:18:21.161Z,62.47
2018-03-02T05:19:24.580Z,70.12
2018-03-02T05:20:27.904Z,62.50
2018-03-02T05:21:30.061Z,59.00
2018-03-02T05:22:31.468Z,64.40
2018-03-02T05:27:47.911Z,58.47
2018-03-02T05:28:49.341Z,58.78
2018-03-02T05:29:52.436Z,61.97
2018-03-02T05:30:54.295Z,57.60
2018-03-02T05:31:57.319Z,62.70
2018-03-02T05:32:58.716Z,59.45
2018-03-02T05:34:02.407Z,60.95
2018-03-02T05:35:04.440Z,60.28
2018-03-02T05:36:07.291Z,61.95
2018-03-02T05:37:08.961Z,62.30
2018-03-02T05:38:10.401Z,65.07
2018-03-02T05:39:11.810Z,61.50
2018-03-02T05:40:13.203Z,66.55
2018-03-02T05:41:14.583Z,60.28
2018-03-02T05:42:16.729Z,63.55
2018-03-02T05:43:18.465Z,59.90
2018-03-02T05:44:20.620Z,59.78
2018-03-02T05:46:30.948Z,65.62
2018-03-02T05:47:33.796Z,62.50
2018-03-02T05:48:37.358Z,66.62
2018-03-02T05:49:39.065Z,69.00
2018-03-02T05:50:41.444Z,61.55
2018-03-02T05:51:44.341Z,62.13
2018-03-02T05:52:45.739Z,66.62
2018-03-02T05:53:47.157Z,65.50
2018-03-02T05:54:50.058Z,67.78
2018-03-02T05:55:51.441Z,63.58
2018-03-02T05:56:52.897Z,64.50
2018-03-02T05:57:54.515Z,65.30
2018-03-02T05:58:56.221Z,63.87
2018-03-02T05:59:57.911Z,63.17
2018-03-02T06:00:59.297Z,67.25
2018-03-02T06:02:01.449Z,65.85
2018-03-02T06:03:04.024Z,61.83
2018-03-02T06:04:06.538Z,67.20
2018-03-02T06:05:08.295Z,63.17
2018-03-02T06:06:10.787Z,64.28
2018-03-02T06:09:18.715Z,63.72
2018-03-02T06:10:20.114Z,64.78
2018-03-02T06:11:21.517Z,65.32
2018-03-02T06:13:04.707Z,64.18
2018-03-02T06:14:07.474Z,59.45
2018-03-02T06:15:10.645Z,64.12
2018-03-02T06:16:12.029Z,57.92
2018-03-02T06:17:14.529Z,65.97
2018-03-02T06:18:15.911Z,64.28
2018-03-02T06:19:17.312Z,63.08
2018-03-02T06:21:21.230Z,62.03
2018-03-02T06:22:22.814Z,61.08
2018-03-02T06:23:24.587Z,64.75
2018-03-02T06:24:26.265Z,66.18
2018-03-02T06:25:27.717Z,64.15
2018-03-02T06:26:29.394Z,65.35
2018-03-02T06:27:30.785Z,72.12
2018-03-02T06:28:33.389Z,65.60
2018-03-02T06:29:35.513Z,66.43
2018-03-02T06:30:37.983Z,65.50
2018-03-02T06:31:39.949Z,66.47
2018-03-02T06:33:22.281Z,63.60
2018-03-02T06:34:24.037Z,65.90
2018-03-02T06:35:25.745Z,58.25
2018-03-02T06:36:27.149Z,62.67
2018-03-02T06:38:16.125Z,64.57
2018-03-02T06:39:17.526Z,67.70
2018-03-02T06:40:19.658Z,62.17
2018-03-02T06:41:21.813Z,58.28
2018-03-02T06:42:23.981Z,59.78
2018-03-02T06:43:25.739Z,63.83
2018-03-02T06:44:27.159Z,61.55
2018-03-02T06:46:58.254Z,60.35
2018-03-02T06:47:59.705Z,59.15
2018-03-02T06:49:01.113Z,65.28
2018-03-02T06:50:03.277Z,63.13
2018-03-02T06:51:06.809Z,63.28
2018-03-02T06:52:08.470Z,64.00
2018-03-02T06:53:10.700Z,65.68
2018-03-02T06:54:12.077Z,61.42
2018-03-02T06:55:13.474Z,63.70
2018-03-02T06:56:14.955Z,64.18
2018-03-02T06:57:16.341Z,66.50
2018-03-02T06:58:17.733Z,63.40
2018-03-02T06:59:21.118Z,58.95
2018-03-02T07:00:22.602Z,59.92
2018-03-02T07:01:24.416Z,69.22
2018-03-02T07:02:26.109Z,61.33
2018-03-02T07:03:27.514Z,62.58
2018-03-02T07:04:28.915Z,60.95
2018-03-02T07:05:32.291Z,64.55
2018-03-02T07:07:29.458Z,67.18
2018-03-02T07:08:57.501Z,62.08
2018-03-02T07:09:58.974Z,63.10
2018-03-02T07:11:01.123Z,61.37
2018-03-02T07:12:04.825Z,66.10
2018-03-02T07:13:07.955Z,65.32
2018-03-02T07:14:09.750Z,62.62
2018-03-02T07:15:11.933Z,63.72
2018-03-02T07:17:13.748Z,64.70
2018-03-02T07:18:15.181Z,60.10
2018-03-02T07:19:17.332Z,64.35
2018-03-02T07:20:19.047Z,61.37
2018-03-02T07:21:20.465Z,60.67
2018-03-02T07:22:21.873Z,62.92
2018-03-02T07:23:52.007Z,61.30
2018-03-02T07:24:53.434Z,64.45
2018-03-02T07:25:55.241Z,65.00
2018-03-02T07:26:57.055Z,66.85
2018-03-02T07:27:58.547Z,58.38
2018-03-02T07:29:01.443Z,64.60
2018-03-02T07:30:05.131Z,65.20
2018-03-02T07:32:32.364Z,66.05
2018-03-02T07:34:29.723Z,61.65
2018-03-02T07:35:31.105Z,67.32
2018-03-02T07:36:33.786Z,61.05
2018-03-02T07:37:35.652Z,57.95
2018-03-02T07:38:37.471Z,61.80
2018-03-02T07:39:39.325Z,62.08
2018-03-02T07:41:38.957Z,62.15
2018-03-02T07:43:37.427Z,64.72
2018-03-02T07:44:39.167Z,59.22
2018-03-02T07:46:45.104Z,66.22
2018-03-02T07:47:46.499Z,62.15
2018-03-02T07:49:20.501Z,66.37
2018-03-02T07:50:21.878Z,64.90
2018-03-02T07:51:24.087Z,63.67
2018-03-02T07:52:25.651Z,62.40
2018-03-02T07:53:27.159Z,65.37
2018-03-02T07:54:28.565Z,63.45
2018-03-02T07:55:29.985Z,67.62
2018-03-02T07:57:02.415Z,64.43
2018-03-02T07:58:06.116Z,59.40
2018-03-02T07:59:56.969Z,60.75
2018-03-02T08:01:00.097Z,66.68
2018-03-02T08:02:02.747Z,63.85
2018-03-02T08:03:05.874Z,58.03
2018-03-02T08:04:07.721Z,65.15
2018-03-02T08:05:10.389Z,66.65
2018-03-02T08:06:11.773Z,63.38
2018-03-02T08:07:14.103Z,63.10
2018-03-02T08:08:15.492Z,66.43
2018-03-02T08:11:46.962Z,61.13
2018-03-02T08:12:48.350Z,59.55
2018-03-02T08:13:49.742Z,60.88
2018-03-02T08:15:57.250Z,60.90
2018-03-02T08:16:58.675Z,60.85
2018-03-02T08:18:00.081Z,60.85
2018-03-02T08:19:01.561Z,61.25
2018-03-02T08:22:27.073Z,61.55
2018-03-02T08:24:47.099Z,61.75
2018-03-02T08:25:48.545Z,64.25
2018-03-02T08:26:49.922Z,60.60
2018-03-02T08:27:51.714Z,62.45
2018-03-02T08:30:09.108Z,61.17
2018-03-02T08:32:37.081Z,59.50
2018-03-02T08:33:42.522Z,62.95
2018-03-02T08:34:44.686Z,63.10
2018-03-02T08:35:46.089Z,59.03
2018-03-02T08:36:47.490Z,65.97
2018-03-02T08:37:48.902Z,65.25
2018-03-02T08:38:51.850Z,59.65
2018-03-02T08:42:36.068Z,60.80
2018-03-02T08:43:38.722Z,57.35
2018-03-02T08:44:40.933Z,57.38
2018-03-02T08:45:42.326Z,66.18
2018-03-02T08:46:43.773Z,61.92
2018-03-02T08:47:45.922Z,60.28
2018-03-02T08:48:47.318Z,57.60
2018-03-02T08:49:48.730Z,58.85
2018-03-02T08:51:42.774Z,59.65
2018-03-02T08:52:44.162Z,57.42
2018-03-02T09:01:12.310Z,57.42
2018-03-02T09:02:13.778Z,63.95
2018-03-02T09:03:16.303Z,57.47
2018-03-02T09:04:18.498Z,58.05
2018-03-02T09:05:20.658Z,61.15
2018-03-02T09:06:22.108Z,61.83
2018-03-02T09:07:23.603Z,61.88
2018-03-02T09:08:26.927Z,63.72
2018-03-02T09:09:28.419Z,65.62
2018-03-02T09:10:29.806Z,61.90
2018-03-02T09:11:34.068Z,65.47
2018-03-02T09:14:09.182Z,57.30
2018-03-02T09:15:11.508Z,60.03
2018-03-02T09:16:12.951Z,57.42
2018-03-02T09:17:14.362Z,58.70
2018-03-02T09:18:15.772Z,58.97
2018-03-02T09:19:17.915Z,61.50
2018-03-02T09:20:19.350Z,62.33
2018-03-02T09:21:21.579Z,61.60
2018-03-02T09:22:23.014Z,59.13
2018-03-02T09:24:00.106Z,61.70
2018-03-02T09:25:01.506Z,59.20
2018-03-02T09:26:05.074Z,59.58
2018-03-02T09:28:22.615Z,56.08
2018-03-02T09:29:24.055Z,59.05
2018-03-02T09:30:26.726Z,59.90
2018-03-02T09:31:28.696Z,58.30
2018-03-02T09:32:30.752Z,61.33
2018-03-02T09:33:33.819Z,60.12
2018-03-02T09:34:37.795Z,56.58
2018-03-02T09:35:41.219Z,57.50
2018-03-02T09:36:43.400Z,57.40
2018-03-02T09:37:44.817Z,57.78
2018-03-02T09:38:46.551Z,58.35
2018-03-02T09:39:48.722Z,55.40
2018-03-02T09:40:50.130Z,59.65
2018-03-02T09:41:51.534Z,57.92
2018-03-02T09:42:52.971Z,53.42
2018-03-02T09:43:55.630Z,55.35
2018-03-02T09:44:57.301Z,56.92
2018-03-02T09:45:59.294Z,61.80
2018-03-02T09:47:00.818Z,60.38
2018-03-02T09:48:05.528Z,58.60
2018-03-02T09:49:07.892Z,58.55
2018-03-02T09:50:10.435Z,61.42
2018-03-02T09:51:12.702Z,59.67
2018-03-02T09:52:14.110Z,55.03
2018-03-02T09:53:16.269Z,58.20
2018-03-02T09:54:17.679Z,58.15
2018-03-02T09:55:19.055Z,55.97
2018-03-02T09:56:22.708Z,54.95
2018-03-02T09:57:25.467Z,55.63
2018-03-02T09:58:27.266Z,59.45
2018-03-02T09:59:29.602Z,55.85
2018-03-02T10:00:31.018Z,64.95
2018-03-02T10:01:34.120Z,57.45
2018-03-02T10:02:38.142Z,54.20
2018-03-02T10:03:39.980Z,57.38
2018-03-02T10:04:42.953Z,55.22
2018-03-02T10:05:44.502Z,56.50
2018-03-02T10:06:47.395Z,56.20
2018-03-02T10:07:50.283Z,55.12
2018-03-02T10:08:51.686Z,61.90
2018-03-02T10:10:25.071Z,61.03
2018-03-02T10:11:28.486Z,60.50
2018-03-02T10:12:29.923Z,59.92
2018-03-02T10:13:32.698Z,56.08
2018-03-02T10:14:36.964Z,59.83
2018-03-02T10:15:38.706Z,58.10
2018-03-02T10:16:41.582Z,56.90
2018-03-02T10:17:43.015Z,57.83
2018-03-02T10:19:39.050Z,55.10
2018-03-02T10:20:41.585Z,62.05
2018-03-02T10:21:43.722Z,58.72
2018-03-02T10:23:16.187Z,57.00
2018-03-02T10:24:17.644Z,61.30
2018-03-02T10:25:19.042Z,62.58
2018-03-02T10:26:21.935Z,55.60
2018-03-02T10:27:23.371Z,61.40
2018-03-02T10:28:25.108Z,59.47
2018-03-02T10:29:26.880Z,61.53
2018-03-02T10:32:12.782Z,55.45
2018-03-02T10:33:14.215Z,65.32
2018-03-02T10:34:17.333Z,58.28
2018-03-02T10:35:18.730Z,58.15
2018-03-02T10:37:08.527Z,58.83
2018-03-02T10:38:10.367Z,57.38
2018-03-02T10:39:11.794Z,56.17
2018-03-02T10:40:13.180Z,57.38
2018-03-02T10:41:14.582Z,57.08
2018-03-02T10:42:16.717Z,56.72
2018-03-02T10:43:18.120Z,55.22
2018-03-02T10:44:20.238Z,54.25
2018-03-02T10:45:21.642Z,59.35
2018-03-02T10:46:23.778Z,56.78
2018-03-02T10:47:25.726Z,54.22
2018-03-02T10:48:28.607Z,57.28
2018-03-02T10:49:30.048Z,58.10
2018-03-02T10:51:13.768Z,54.40
2018-03-02T10:52:17.232Z,55.72
2018-03-02T10:53:19.682Z,59.30
2018-03-02T10:54:21.444Z,53.08
2018-03-02T10:55:23.976Z,57.78
2018-03-02T11:03:30.031Z,57.13
2018-03-02T11:04:36.002Z,58.00
2018-03-02T11:05:44.442Z,61.08
2018-03-02T11:06:46.578Z,59.20
2018-03-02T11:07:48.745Z,56.95
2018-03-02T11:08:51.654Z,56.22
2018-03-02T11:11:22.096Z,59.47
2018-03-02T11:12:24.258Z,60.72
2018-03-02T11:13:27.510Z,57.25
2018-03-02T11:14:29.670Z,55.47
2018-03-02T11:15:31.099Z,55.45
2018-03-02T11:16:34.521Z,56.53
2018-03-02T11:17:37.458Z,56.80
2018-03-02T11:18:39.962Z,54.60
2018-03-02T11:19:41.709Z,58.42
2018-03-02T11:21:22.385Z,59.58
2018-03-02T11:36:34.392Z,57.05
2018-03-02T11:37:37.711Z,58.03
2018-03-02T11:38:39.651Z,58.97
2018-03-02T11:39:42.838Z,59.72
2018-03-02T11:41:53.650Z,55.85
2018-03-02T11:42:55.713Z,58.60
2018-03-02T11:43:57.897Z,60.88
2018-03-02T11:44:59.885Z,60.05
2018-03-02T11:46:01.334Z,58.03
2018-03-02T11:47:05.168Z,59.38
2018-03-02T11:48:28.395Z,56.47
2018-03-02T11:49:30.158Z,58.00
2018-03-02T11:51:24.192Z,55.38
2018-03-02T11:52:26.336Z,60.92
2018-03-02T11:53:29.034Z,55.10
2018-03-02T11:54:30.522Z,59.67
2018-03-02T11:55:33.445Z,60.03
2018-03-02T11:56:37.540Z,58.03
2018-03-02T11:57:39.850Z,58.50
2018-03-02T11:58:42.257Z,56.25
2018-03-02T11:59:43.666Z,58.63
2018-03-02T12:00:45.148Z,56.80
2018-03-02T12:01:46.555Z,59.13
2018-03-02T12:02:47.951Z,59.63
2018-03-02T12:03:50.358Z,61.08
2018-03-02T12:04:51.750Z,57.08
2018-03-02T12:05:53.202Z,55.38
2018-03-02T12:06:55.353Z,60.15
2018-03-02T12:07:57.814Z,58.33
2018-03-02T12:08:59.862Z,61.45
2018-03-02T12:10:01.266Z,56.83
2018-03-02T12:11:27.235Z,64.12
2018-03-02T12:12:29.322Z,57.88
2018-03-02T12:13:30.766Z,55.72
2018-03-02T12:14:33.886Z,57.17
2018-03-02T12:15:37.204Z,60.47
2018-03-02T12:16:39.247Z,60.70
2018-03-02T12:17:41.176Z,60.60
2018-03-02T12:18:42.661Z,60.05
2018-03-02T12:19:44.099Z,59.38
2018-03-02T12:20:45.489Z,59.92
2018-03-02T12:21:48.595Z,56.15
2018-03-02T12:22:50.001Z,58.17
2018-03-02T12:23:51.419Z,56.00
2018-03-02T12:24:54.326Z,59.30
2018-03-02T12:25:56.960Z,59.60
2018-03-02T12:26:59.081Z,58.63
2018-03-02T12:28:00.506Z,58.58
2018-03-02T12:29:02.494Z,58.47
2018-03-02T12:30:06.026Z,57.25
2018-03-02T12:31:08.575Z,57.88
2018-03-02T12:32:50.544Z,61.35
2018-03-02T12:33:53.492Z,57.85
2018-03-02T12:34:54.884Z,59.58
2018-03-02T12:35:58.669Z,53.13
2018-03-02T12:37:00.811Z,61.67
2018-03-02T12:38:03.839Z,54.00
2018-03-02T12:39:07.163Z,55.83
2018-03-02T12:40:09.045Z,61.97
2018-03-02T12:41:11.014Z,57.67
2018-03-02T12:42:12.482Z,61.13
2018-03-02T12:43:43.466Z,60.15
2018-03-02T12:44:44.918Z,60.40
2018-03-02T12:45:46.306Z,61.00
2018-03-02T12:46:48.474Z,58.60
2018-03-02T12:47:50.650Z,60.20
2018-03-02T12:48:52.041Z,67.53
2018-03-02T12:49:54.237Z,63.63
2018-03-02T12:50:56.953Z,62.30
2018-03-02T12:51:59.339Z,60.78
2018-03-02T12:53:01.610Z,62.13
2018-03-02T12:54:05.155Z,62.45
2018-03-02T12:55:07.360Z,56.00
2018-03-02T12:57:09.824Z,59.08
2018-03-02T12:58:11.827Z,61.53
2018-03-02T12:59:13.270Z,58.65
2018-03-02T13:00:14.758Z,64.80
2018-03-02T13:01:16.158Z,61.10
2018-03-02T13:02:19.622Z,59.60
2018-03-02T13:03:21.033Z,62.38
2018-03-02T13:04:22.826Z,64.87
2018-03-02T13:05:24.240Z,58.75
2018-03-02T13:06:25.623Z,63.25
2018-03-02T13:07:27.626Z,58.05
2018-03-02T13:08:29.795Z,58.45
2018-03-02T13:09:31.216Z,68.55
2018-03-02T13:10:35.148Z,64.65
2018-03-02T13:11:38.562Z,55.75
2018-03-02T13:12:40.489Z,68.37
2018-03-02T13:13:42.671Z,58.90
2018-03-02T13:14:44.098Z,66.45
2018-03-02T13:16:14.865Z,61.65
2018-03-02T13:17:16.326Z,60.42
2018-03-02T13:18:37.206Z,63.17
2018-03-02T13:19:39.510Z,61.47
2018-03-02T13:20:42.745Z,62.62
2018-03-02T13:21:44.138Z,66.10
2018-03-02T13:22:46.306Z,65.68
2018-03-02T13:23:47.795Z,65.20
2018-03-02T13:24:50.322Z,65.57
2018-03-02T13:25:51.767Z,61.83
2018-03-02T13:27:11.546Z,62.05
2018-03-02T13:36:43.242Z,63.65
2018-03-02T13:37:44.639Z,63.70
2018-03-02T13:38:46.052Z,70.80
2018-03-02T13:40:07.727Z,69.50
2018-03-02T13:41:28.326Z,64.40
2018-03-02T13:43:12.942Z,62.28
2018-03-02T13:44:14.366Z,63.45
2018-03-02T13:45:15.778Z,64.97
2018-03-02T13:46:17.198Z,64.65
2018-03-02T13:47:18.647Z,66.97
2018-03-02T13:48:47.380Z,64.72
2018-03-02T13:50:00.115Z,66.82
2018-03-02T13:51:47.815Z,62.75
2018-03-02T13:52:49.218Z,67.10
2018-03-02T13:53:50.666Z,67.22
2018-03-02T13:54:53.778Z,64.20
2018-03-02T13:55:56.998Z,68.45
2018-03-02T13:57:16.986Z,68.55
2018-03-02T13:58:19.204Z,68.40
2018-03-02T13:59:20.994Z,63.85
2018-03-02T14:00:23.515Z,66.28
2018-03-02T14:01:25.019Z,64.68
2018-03-02T14:02:44.798Z,67.57
2018-03-02T14:04:00.079Z,69.35
2018-03-02T14:05:07.553Z,66.82
2018-03-02T14:06:09.684Z,65.47
2018-03-02T14:07:12.882Z,68.18
2018-03-02T14:08:14.314Z,70.45
2018-03-02T14:09:15.793Z,71.53
2018-03-02T14:10:17.459Z,66.93
2018-03-02T14:11:52.898Z,66.78
2018-03-02T14:12:54.360Z,67.28
2018-03-02T14:15:10.712Z,72.78
2018-03-02T14:16:12.599Z,66.70
2018-03-02T14:17:15.471Z,69.65
2018-03-02T14:18:17.705Z,69.65
2018-03-02T14:19:19.103Z,64.60
2018-03-02T14:20:21.279Z,67.35
2018-03-02T14:21:22.994Z,68.87
2018-03-02T14:22:25.138Z,68.12
2018-03-02T14:23:29.136Z,65.60
2018-03-02T14:24:33.994Z,70.30
2018-03-02T14:26:12.572Z,69.72
2018-03-02T14:27:13.986Z,69.87
2018-03-02T14:29:08.800Z,66.85
2018-03-02T14:30:10.972Z,70.10
2018-03-02T14:31:13.155Z,66.53
2018-03-02T14:32:15.631Z,64.53
2018-03-02T14:33:17.039Z,72.22
2018-03-02T14:34:18.447Z,82.10
2018-03-02T14:35:20.608Z,71.00
2018-03-02T14:36:22.810Z,68.00
2018-03-02T14:37:24.232Z,67.87
2018-03-02T14:38:25.760Z,69.97
2018-03-02T14:39:28.228Z,70.28
2018-03-02T14:40:29.699Z,66.22
2018-03-02T14:41:34.931Z,72.30
2018-03-02T14:42:38.170Z,65.57
2018-03-02T14:43:41.727Z,67.40
2018-03-02T14:44:43.151Z,67.40
2018-03-02T14:45:45.335Z,63.87
2018-03-02T14:46:48.239Z,67.85
2018-03-02T14:47:49.678Z,71.97
2018-03-02T14:49:20.890Z,63.40
2018-03-02T14:50:22.320Z,66.22
2018-03-02T14:51:23.738Z,64.68
2018-03-02T14:52:25.154Z,65.25
2018-03-02T14:53:27.522Z,66.37
2018-03-02T14:54:29.742Z,68.15
2018-03-02T14:55:35.055Z,67.40
2018-03-02T14:56:38.029Z,69.10
2018-03-02T14:57:40.775Z,67.70
2018-03-02T15:07:01.169Z,70.87
2018-03-02T15:08:06.541Z,70.22
2018-03-02T15:09:09.280Z,68.93
2018-03-02T15:10:11.223Z,65.35
2018-03-02T15:12:33.108Z,72.68
2018-03-02T15:13:36.691Z,66.40
2018-03-02T15:14:39.595Z,70.57
2018-03-02T15:15:41.610Z,64.70
2018-03-02T15:16:43.717Z,65.15
2018-03-02T15:17:47.012Z,71.37
2018-03-02T15:18:49.523Z,62.58
2018-03-02T15:20:24.584Z,67.32
2018-03-02T15:21:27.722Z,68.57
2018-03-02T15:22:30.784Z,68.45
2018-03-02T15:23:34.871Z,70.10
2018-03-02T15:24:37.706Z,64.85
2018-03-02T15:25:41.170Z,69.07
2018-03-02T15:26:43.192Z,67.28
2018-03-02T15:27:45.317Z,66.85
2018-03-02T15:28:46.816Z,63.65
2018-03-02T15:29:48.233Z,63.13
2018-03-02T15:30:49.637Z,64.50
2018-03-02T15:31:51.047Z,68.75
2018-03-02T15:32:52.455Z,66.45
2018-03-02T15:33:55.564Z,69.72
2018-03-02T15:34:57.697Z,63.13
2018-03-02T15:35:59.124Z,71.95
2018-03-02T15:37:00.520Z,72.75
2018-03-02T15:38:04.811Z,65.87
2018-03-02T15:39:08.607Z,73.75
2018-03-02T15:40:12.104Z,70.32
2018-03-02T15:41:13.993Z,72.43
2018-03-02T15:42:36.525Z,72.47
2018-03-02T15:43:39.146Z,71.70
2018-03-02T15:44:40.809Z,75.57
2018-03-02T15:45:42.429Z,72.37